createdAt,value
2019-04-22T00:00:32.969Z,51.96
2019-04-22T00:03:44.821Z,51.97
2019-04-22T00:07:03.082Z,51.62
2019-04-22T00:10:24.232Z,51.66
2019-04-22T00:13:37.030Z,51.31
2019-04-22T00:16:38.877Z,51.15
2019-04-22T00:19:43.769Z,50.91
2019-04-22T00:22:47.445Z,50.43
2019-04-22T00:26:01.642Z,50.46
2019-04-22T00:29:35.932Z,50.43
2019-04-22T00:32:24.306Z,50.08
2019-04-22T00:35:35.006Z,49.77
2019-04-22T00:38:44.348Z,49.52
2019-04-22T00:41:56.492Z,49.32
2019-04-22T00:45:08.285Z,49.34
2019-04-22T00:48:17.861Z,49.44
2019-04-22T00:51:22.538Z,49.36
2019-04-22T00:54:30.990Z,49.71
2019-04-22T00:57:32.368Z,49.36
2019-04-22T01:00:44.280Z,49.62
2019-04-22T01:03:57.034Z,49.47
2019-04-22T01:07:00.689Z,49.42
2019-04-22T01:10:11.612Z,49.42
2019-04-22T01:13:21.423Z,49.89
2019-04-22T01:19:39.047Z,49.92
2019-04-22T01:22:38.139Z,49.96
2019-04-22T01:25:46.311Z,50.00
2019-04-22T01:28:52.901Z,50.01
2019-04-22T01:31:49.118Z,50.14
2019-04-22T01:35:08.429Z,50.27
2019-04-22T01:38:19.955Z,50.43
2019-04-22T01:41:55.360Z,50.38
2019-04-22T01:44:45.490Z,50.57
2019-04-22T01:47:55.376Z,50.52
2019-04-22T01:51:01.690Z,50.54
2019-04-22T01:54:12.938Z,50.56
2019-04-22T01:57:17.455Z,50.68
2019-04-22T02:00:33.687Z,50.66
2019-04-22T02:03:41.411Z,50.56
2019-04-22T02:13:03.106Z,50.75
2019-04-22T02:16:21.164Z,50.83
2019-04-22T02:19:24.417Z,50.77
2019-04-22T02:22:47.634Z,50.62
2019-04-22T02:25:47.401Z,50.50
2019-04-22T02:28:42.788Z,50.73
2019-04-22T02:31:59.366Z,50.48
2019-04-22T02:35:03.450Z,50.31
2019-04-22T02:38:20.008Z,50.24
2019-04-22T02:44:31.496Z,50.05
2019-04-22T02:47:50.251Z,50.09
2019-04-22T02:50:43.830Z,49.83
2019-04-22T02:54:27.099Z,49.81
2019-04-22T02:57:07.979Z,49.58
2019-04-22T03:00:13.152Z,49.50
2019-04-22T03:09:29.933Z,49.45
2019-04-22T03:16:01.266Z,49.15
2019-04-22T03:19:05.814Z,49.32
2019-04-22T03:22:08.662Z,48.98
2019-04-22T03:28:32.916Z,48.89
2019-04-22T03:41:30.873Z,48.74
2019-04-22T03:47:43.587Z,48.62
2019-04-22T03:50:36.478Z,48.34
2019-04-22T03:54:08.286Z,48.23
2019-04-22T04:03:15.031Z,47.82
2019-04-22T04:06:36.580Z,47.66
2019-04-22T04:09:38.558Z,47.41
2019-04-22T04:15:38.726Z,47.07
2019-04-22T04:19:08.249Z,46.85
2019-04-22T04:22:22.115Z,47.10
2019-04-22T04:25:27.537Z,47.12
2019-04-22T04:28:47.253Z,46.41
2019-04-22T04:31:40.814Z,46.39
2019-04-22T04:40:57.458Z,46.09
2019-04-22T04:47:25.830Z,45.88
2019-04-22T04:50:18.621Z,45.94
2019-04-22T04:53:29.181Z,46.33
2019-04-22T05:06:10.635Z,45.20
2019-04-22T05:12:41.744Z,45.06
2019-04-22T05:18:37.946Z,45.01
2019-04-22T05:21:46.967Z,44.85
2019-04-22T05:24:54.226Z,45.07
2019-04-22T05:28:04.015Z,44.95
2019-04-22T05:31:08.638Z,45.15
2019-04-22T05:34:14.398Z,45.42
2019-04-22T05:37:27.702Z,45.43
2019-04-22T05:40:30.678Z,45.40
2019-04-22T05:43:40.668Z,45.47
2019-04-22T05:46:49.919Z,45.79
2019-04-22T05:49:55.203Z,45.75
2019-04-22T05:53:05.201Z,45.67
2019-04-22T05:56:20.828Z,45.69
2019-04-22T05:59:27.344Z,45.74
2019-04-22T06:02:39.421Z,45.72
2019-04-22T06:08:55.844Z,45.94
2019-04-22T06:11:52.075Z,45.63
2019-04-22T06:15:04.399Z,46.16
2019-04-22T06:21:28.165Z,45.88
2019-04-22T06:24:49.357Z,46.08
2019-04-22T06:27:41.827Z,45.88
2019-04-22T06:34:02.263Z,45.83
2019-04-22T06:40:16.407Z,45.90
2019-04-22T06:43:22.240Z,45.37
2019-04-22T06:49:46.636Z,44.85
2019-04-22T06:52:55.616Z,44.59
2019-04-22T06:55:59.639Z,44.39
2019-04-22T06:59:07.051Z,44.62
2019-04-22T07:02:16.730Z,44.38
2019-04-22T07:05:23.085Z,44.43
2019-04-22T07:08:59.615Z,44.19
2019-04-22T07:11:36.333Z,43.96
2019-04-22T07:14:42.033Z,43.95
2019-04-22T07:17:58.402Z,44.34
2019-04-22T07:21:01.456Z,42.80
2019-04-22T07:24:28.208Z,42.63
2019-04-22T07:27:18.809Z,42.39
2019-04-22T07:30:27.989Z,41.96
2019-04-22T07:33:37.701Z,41.96
2019-04-22T07:39:50.233Z,41.45
2019-04-22T07:43:04.406Z,41.59
2019-04-22T07:46:10.871Z,41.87
2019-04-22T07:49:24.069Z,42.13
2019-04-22T07:55:36.899Z,41.91
2019-04-22T07:58:44.937Z,41.72
2019-04-22T08:01:52.093Z,41.97
2019-04-22T08:08:13.089Z,41.90
2019-04-22T08:11:30.970Z,42.07
2019-04-22T08:14:20.953Z,42.32
2019-04-22T08:17:51.882Z,42.49
2019-04-22T08:20:41.540Z,42.56
2019-04-22T08:23:52.555Z,42.87
2019-04-22T08:27:00.659Z,42.70
2019-04-22T08:30:18.431Z,42.70
2019-04-22T08:33:15.496Z,42.87
2019-04-22T08:36:40.902Z,43.43
2019-04-22T08:39:34.488Z,43.87
2019-04-22T08:42:49.961Z,43.87
2019-04-22T08:45:51.118Z,44.33
2019-04-22T08:52:08.800Z,44.29
2019-04-22T08:55:17.947Z,44.34
2019-04-22T09:01:41.935Z,43.96
2019-04-22T09:04:37.137Z,44.15
2019-04-22T09:08:09.433Z,43.99
2019-04-22T09:10:57.099Z,43.58
2019-04-22T09:14:26.784Z,43.48
2019-04-22T09:17:17.318Z,43.51
2019-04-22T09:20:20.583Z,43.59
2019-04-22T09:23:33.968Z,43.54
2019-04-22T09:26:43.632Z,43.03
2019-04-22T09:29:44.422Z,43.08
2019-04-22T09:36:13.008Z,43.62
2019-04-22T09:39:19.305Z,43.67
2019-04-22T09:42:18.892Z,43.70
2019-04-22T09:45:43.955Z,43.78
2019-04-22T09:48:43.428Z,42.77
2019-04-22T09:51:46.172Z,42.62
2019-04-22T09:54:59.787Z,42.63
2019-04-22T09:58:02.773Z,41.73
2019-04-22T10:01:18.791Z,41.64
2019-04-22T10:04:23.545Z,41.57
2019-04-22T10:07:32.141Z,41.82
2019-04-22T10:10:46.479Z,40.04
2019-04-22T10:13:51.939Z,39.41
2019-04-22T10:20:03.335Z,40.11
2019-04-22T10:23:13.001Z,40.48
2019-04-22T10:26:21.824Z,40.46
2019-04-22T10:29:24.659Z,40.46
2019-04-22T10:32:29.176Z,39.14
2019-04-22T10:35:19.910Z,39.75
2019-04-22T10:38:26.291Z,40.62
2019-04-22T10:41:34.601Z,41.16
2019-04-22T10:44:41.479Z,41.16
2019-04-22T10:47:48.084Z,40.71
2019-04-22T10:50:54.834Z,40.93
2019-04-22T10:54:01.819Z,40.94
2019-04-22T10:57:10.753Z,41.45
2019-04-22T11:00:18.091Z,42.07
2019-04-22T11:03:28.046Z,41.69
2019-04-22T11:06:42.598Z,42.71
2019-04-22T11:09:51.669Z,42.51
2019-04-22T11:12:51.269Z,42.55
2019-04-22T11:15:58.479Z,42.48
2019-04-22T11:19:05.550Z,42.05
2019-04-22T11:22:19.004Z,41.50
2019-04-22T11:25:21.671Z,41.05
2019-04-22T11:28:29.652Z,41.01
2019-04-22T11:31:38.617Z,41.04
2019-04-22T11:34:45.114Z,40.89
2019-04-22T11:37:52.755Z,41.26
2019-04-22T11:41:00.015Z,39.77
2019-04-22T11:44:07.707Z,39.44
2019-04-22T11:47:15.163Z,40.17
2019-04-22T11:50:26.145Z,39.42
2019-04-22T11:53:32.664Z,38.35
2019-04-22T11:56:39.210Z,35.48
2019-04-22T11:59:46.968Z,34.96
2019-04-22T12:02:54.747Z,33.53
2019-04-22T12:06:02.063Z,33.53
2019-04-22T12:09:12.109Z,33.04
2019-04-22T12:12:18.778Z,33.74
2019-04-22T12:15:26.698Z,31.08
2019-04-22T12:18:33.393Z,32.49
2019-04-22T12:21:41.228Z,33.83
2019-04-22T12:24:48.240Z,33.29
2019-04-22T12:27:55.160Z,34.59
2019-04-22T12:31:01.806Z,33.29
2019-04-22T12:34:08.436Z,33.47
2019-04-22T12:37:26.066Z,34.18
2019-04-22T12:40:33.838Z,33.60
2019-04-22T12:43:33.650Z,31.10
2019-04-22T12:46:40.076Z,32.68
2019-04-22T12:49:54.342Z,32.31
2019-04-22T12:52:59.337Z,32.31
2019-04-22T12:56:03.081Z,33.06
2019-04-22T12:59:09.776Z,31.92
2019-04-22T13:02:18.680Z,32.88
2019-04-22T13:05:26.925Z,32.88
2019-04-22T13:08:33.933Z,30.99
2019-04-22T13:11:42.244Z,31.97
2019-04-22T13:14:48.876Z,33.35
2019-04-22T13:18:06.122Z,32.25
2019-04-22T13:21:04.602Z,33.16
2019-04-22T13:24:11.229Z,33.24
2019-04-22T13:27:19.247Z,32.04
2019-04-22T13:30:28.422Z,32.44
2019-04-22T13:33:36.939Z,32.67
2019-04-22T13:36:46.396Z,32.64
2019-04-22T13:39:52.876Z,33.93
2019-04-22T13:43:00.687Z,33.35
2019-04-22T13:46:08.070Z,33.93
2019-04-22T13:55:56.897Z,33.05
2019-04-22T13:58:54.100Z,32.92
2019-04-22T14:02:08.714Z,33.54
2019-04-22T14:05:19.332Z,34.17
2019-04-22T14:08:33.094Z,33.57
2019-04-22T14:11:49.335Z,34.22
2019-04-22T14:14:50.440Z,34.00
2019-04-22T14:18:03.041Z,34.66
2019-04-22T14:21:09.999Z,34.65
2019-04-22T14:24:17.862Z,35.66
2019-04-22T14:27:45.606Z,36.29
2019-04-22T14:30:44.295Z,36.41
2019-04-22T14:33:55.987Z,35.78
2019-04-22T14:37:01.525Z,35.76
2019-04-22T14:40:12.283Z,36.64
2019-04-22T14:43:49.925Z,35.87
2019-04-22T14:47:00.458Z,36.81
2019-04-22T14:49:58.953Z,37.17
2019-04-22T14:53:09.816Z,36.20
